Pagina principale
METAR-TAF:

METAR-TAF

Aeroporti :

Huesca, Spagna

latitudine: 42-04-32N, longitudine: 0-18-58W, altezza: 539 m

Osservazione

Il bollettino è stato emesso 25 minuti fa, alle 06:30 UTC
Vento 9 kt da ovest
Temperature 3°C
Umidità 100%
Pressione 1008 hPa
Visibilità 10 km o più

METAR: LEHC 180630Z AUTO 27009KT 9999 NCD 03/03 Q1008

Ora: 07:55 (06:55 UTC)

Previsione

Il bollettino è stato emesso 4 ore e 55 minuti fa, alle 02:00 UTC
Previsione valida dal 18 alle 03 UTC al 19 alle 03 UTC
Vento 10 kt da ovest
Visibilità 10 km o più
Nubi sparse ad un'altezza di 5000 ft
Evoluzione graduale
dal 18 alle 16 UTC al 18 alle 18 UTC
Vento 7 kt da ovest

TAF: LEHC 180200Z 1803/1903 28010KT 9999 SCT050 TX10/1813Z TN01/1806Z BECMG 1816/1818 27007KT

Osservazioni e previsioni meteorologiche di più di 4000 aeroporti (messaggi METAR e TAF).

Le stazioni disponibili sono rappresentate dai dischi gialli e rossi sulla carta.

Puntare il mouse per vedere il nome della stazione.

Clicca sopra per visualizzare le osservazioni e previsioni meteorologiche.

Per cambiare la mappa : fare clic sui pulsanti verdi con una croce nera per ingrandire, il pulsante verde con un trattino per diminuire, o sulla freccia verde per le mappe adiacenti.


METAR-TAF: